createdAt,value
2017-01-16T00:00:03.438Z,99.99
2017-01-16T00:01:03.453Z,99.99
2017-01-16T00:02:03.468Z,99.99
2017-01-16T00:03:03.479Z,99.99
2017-01-16T00:04:18.411Z,99.99
2017-01-16T00:05:03.511Z,99.99
2017-01-16T00:06:03.524Z,99.99
2017-01-16T00:07:03.538Z,99.99
2017-01-16T00:08:03.553Z,99.99
2017-01-16T00:09:03.564Z,99.99
2017-01-16T00:10:03.581Z,99.99
2017-01-16T00:11:03.594Z,99.99
2017-01-16T00:12:03.606Z,99.99
2017-01-16T00:13:03.622Z,99.99
2017-01-16T00:14:03.635Z,99.99
2017-01-16T00:15:03.651Z,99.99
2017-01-16T00:17:03.676Z,99.99
2017-01-16T00:18:03.693Z,99.99
2017-01-16T00:19:03.707Z,99.99
2017-01-16T00:20:18.636Z,99.99
2017-01-16T00:21:03.735Z,99.99
2017-01-16T00:22:03.748Z,99.99
2017-01-16T00:23:03.761Z,99.99
2017-01-16T00:24:03.778Z,99.99
2017-01-16T00:25:03.789Z,99.99
2017-01-16T00:26:03.805Z,99.99
2017-01-16T00:27:03.819Z,99.99
2017-01-16T00:28:03.859Z,99.99
2017-01-16T00:29:03.845Z,99.99
2017-01-16T00:30:03.861Z,99.99
2017-01-16T00:31:03.872Z,99.99
2017-01-16T00:32:03.888Z,99.99
2017-01-16T00:33:03.902Z,99.99
2017-01-16T00:34:03.914Z,99.99
2017-01-16T00:35:03.932Z,99.99
2017-01-16T00:36:18.860Z,99.99
2017-01-16T00:37:03.958Z,99.99
2017-01-16T00:38:03.975Z,99.99
2017-01-16T00:39:03.986Z,99.99
2017-01-16T00:40:04.005Z,99.99
2017-01-16T00:41:04.013Z,99.99
2017-01-16T00:42:04.026Z,99.99
2017-01-16T00:43:04.042Z,99.99
2017-01-16T00:44:04.055Z,99.99
2017-01-16T00:45:04.069Z,99.99
2017-01-16T00:46:04.083Z,99.99
2017-01-16T00:48:04.112Z,99.99
2017-01-16T00:49:04.127Z,99.99
2017-01-16T00:50:04.139Z,99.99
2017-01-16T00:51:19.071Z,99.99
2017-01-16T00:52:04.199Z,99.99
2017-01-16T00:53:04.180Z,99.99
2017-01-16T00:54:04.195Z,99.99
2017-01-16T00:55:04.210Z,99.99
2017-01-16T00:56:04.225Z,99.99
2017-01-16T00:57:04.236Z,99.99
2017-01-16T00:58:04.254Z,99.99
2017-01-16T00:59:04.264Z,99.99
2017-01-16T01:00:04.280Z,99.99
2017-01-16T01:01:04.292Z,99.99
2017-01-16T01:03:04.323Z,99.99
2017-01-16T01:04:04.336Z,99.99
2017-01-16T01:05:04.350Z,99.99
2017-01-16T01:06:04.364Z,99.99
2017-01-16T01:07:04.377Z,99.99
2017-01-16T01:08:04.391Z,99.99
2017-01-16T01:09:04.405Z,99.99
2017-01-16T01:10:04.419Z,99.99
2017-01-16T01:11:04.457Z,99.99
2017-01-16T01:12:04.450Z,99.99
2017-01-16T01:13:04.460Z,99.99
2017-01-16T01:14:04.475Z,99.99
2017-01-16T01:15:04.489Z,99.99
2017-01-16T01:16:04.502Z,99.99
2017-01-16T01:17:04.520Z,99.99
2017-01-16T01:20:04.558Z,99.99
2017-01-16T01:21:04.573Z,99.99
2017-01-16T01:22:04.585Z,99.99
2017-01-16T01:23:19.517Z,99.99
2017-01-16T01:24:04.614Z,99.99
2017-01-16T01:25:04.628Z,99.99
2017-01-16T01:26:04.641Z,99.99
2017-01-16T01:27:04.657Z,99.99
2017-01-16T01:28:04.668Z,99.99
2017-01-16T01:29:04.690Z,99.99
2017-01-16T01:30:04.698Z,99.99
2017-01-16T01:31:04.711Z,99.99
2017-01-16T01:33:04.739Z,99.99
2017-01-16T01:34:04.752Z,99.99
2017-01-16T01:35:04.767Z,99.99
2017-01-16T01:36:04.784Z,99.99
2017-01-16T01:37:04.794Z,99.99
2017-01-16T01:38:04.811Z,99.99
2017-01-16T01:39:19.740Z,99.76
2017-01-16T01:40:04.836Z,99.57
2017-01-16T01:41:04.852Z,99.76
2017-01-16T01:42:04.866Z,99.76
2017-01-16T01:43:04.881Z,99.76
2017-01-16T01:44:04.891Z,99.99
2017-01-16T01:45:04.906Z,99.76
2017-01-16T01:46:04.921Z,99.99
2017-01-16T01:47:05.235Z,99.99
2017-01-16T01:48:04.947Z,99.99
2017-01-16T01:49:04.962Z,99.99
2017-01-16T01:50:04.978Z,99.99
2017-01-16T01:51:04.990Z,99.95
2017-01-16T01:52:05.004Z,99.99
2017-01-16T01:53:05.019Z,99.99
2017-01-16T01:54:05.032Z,99.76
2017-01-16T01:55:19.962Z,99.47
2017-01-16T01:56:05.059Z,99.38
2017-01-16T01:57:05.075Z,99.76
2017-01-16T01:58:05.087Z,99.85
2017-01-16T01:59:05.106Z,99.57
2017-01-16T02:00:05.501Z,99.76
2017-01-16T02:01:05.129Z,99.85
2017-01-16T02:02:05.143Z,99.85
2017-01-16T02:03:05.158Z,99.85
2017-01-16T02:04:05.172Z,99.85
2017-01-16T02:05:05.573Z,99.66
2017-01-16T02:06:05.198Z,99.76
2017-01-16T02:07:05.212Z,99.47
2017-01-16T02:08:05.229Z,99.85
2017-01-16T02:09:05.264Z,99.85
2017-01-16T02:10:05.254Z,99.85
2017-01-16T02:11:20.185Z,99.85
2017-01-16T02:12:05.282Z,99.85
2017-01-16T02:13:05.296Z,99.99
2017-01-16T02:14:05.309Z,99.99
2017-01-16T02:15:05.328Z,99.95
2017-01-16T02:16:05.338Z,99.85
2017-01-16T02:17:05.350Z,99.57
2017-01-16T02:18:05.365Z,99.76
2017-01-16T02:19:05.381Z,99.85
2017-01-16T02:20:05.395Z,99.85
2017-01-16T02:21:05.406Z,99.76
2017-01-16T02:23:05.434Z,99.38
2017-01-16T02:24:05.450Z,99.28
2017-01-16T02:25:05.463Z,99.38
2017-01-16T02:26:20.394Z,99.38
2017-01-16T02:27:05.490Z,99.38
2017-01-16T02:28:05.503Z,99.47
2017-01-16T02:29:05.519Z,99.57
2017-01-16T02:30:05.533Z,99.66
2017-01-16T02:31:05.548Z,99.57
2017-01-16T02:32:05.559Z,99.66
2017-01-16T02:33:05.576Z,99.19
2017-01-16T02:34:05.591Z,99.28
2017-01-16T02:35:05.603Z,99.38
2017-01-16T02:37:05.630Z,99.38
2017-01-16T02:39:05.659Z,99.38
2017-01-16T02:40:05.671Z,99.38
2017-01-16T02:41:05.687Z,99.38
2017-01-16T02:42:05.701Z,99.38
2017-01-16T02:43:05.712Z,99.76
2017-01-16T02:44:05.729Z,99.95
2017-01-16T02:45:05.745Z,99.28
2017-01-16T02:46:05.754Z,99.38
2017-01-16T02:47:05.767Z,99.38
2017-01-16T02:48:05.784Z,99.57
2017-01-16T02:49:05.798Z,99.38
2017-01-16T02:50:05.810Z,99.19
2017-01-16T02:51:05.826Z,99.47
2017-01-16T02:52:05.914Z,99.28
2017-01-16T02:53:06.042Z,99.38
2017-01-16T02:55:05.880Z,99.28
2017-01-16T02:56:05.895Z,99.57
2017-01-16T02:57:05.909Z,99.38
2017-01-16T02:58:20.839Z,99.47
2017-01-16T02:59:05.937Z,99.76
2017-01-16T03:00:05.951Z,99.47
2017-01-16T03:01:05.964Z,99.47
2017-01-16T03:02:05.979Z,99.47
2017-01-16T03:03:05.991Z,99.28
2017-01-16T03:04:06.007Z,99.19
2017-01-16T03:05:06.018Z,99.76
2017-01-16T03:06:06.064Z,99.38
2017-01-16T03:07:06.046Z,99.57
2017-01-16T03:08:06.064Z,99.57
2017-01-16T03:09:06.076Z,99.57
2017-01-16T03:10:06.089Z,99.47
2017-01-16T03:11:06.102Z,99.57
2017-01-16T03:12:06.115Z,99.95
2017-01-16T03:13:06.129Z,99.47
2017-01-16T03:14:21.060Z,99.57
2017-01-16T03:15:06.158Z,99.57
2017-01-16T03:16:06.173Z,99.38
2017-01-16T03:17:06.186Z,99.66
2017-01-16T03:18:06.199Z,99.28
2017-01-16T03:19:06.213Z,99.23
2017-01-16T03:20:06.225Z,99.19
2017-01-16T03:21:06.241Z,99.66
2017-01-16T03:22:06.254Z,99.85
2017-01-16T03:23:06.267Z,99.95
2017-01-16T03:24:06.283Z,99.76
2017-01-16T03:26:06.309Z,99.76
2017-01-16T03:27:06.324Z,99.95
2017-01-16T03:28:06.335Z,99.85
2017-01-16T03:29:06.351Z,99.8
2017-01-16T03:30:21.281Z,99.99
2017-01-16T03:31:06.378Z,99.99
2017-01-16T03:32:06.393Z,99.99
2017-01-16T03:33:06.437Z,99.99
2017-01-16T03:34:06.419Z,99.99
2017-01-16T03:35:06.433Z,99.99
2017-01-16T03:36:06.447Z,99.99
2017-01-16T03:37:06.461Z,99.99
2017-01-16T03:38:06.475Z,99.99
2017-01-16T03:39:06.489Z,99.99
2017-01-16T03:42:06.531Z,99.99
2017-01-16T03:43:06.543Z,99.99
2017-01-16T03:44:06.558Z,99.99
2017-01-16T03:45:06.572Z,99.99
2017-01-16T03:46:21.502Z,99.99
2017-01-16T03:47:06.599Z,99.99
2017-01-16T03:48:06.613Z,99.99
2017-01-16T03:49:06.627Z,99.99
2017-01-16T03:50:06.639Z,99.99
2017-01-16T03:51:06.655Z,99.99
2017-01-16T03:52:06.666Z,99.99
2017-01-16T03:53:06.680Z,99.99
2017-01-16T03:54:06.695Z,99.99
2017-01-16T03:55:06.709Z,99.99
2017-01-16T03:56:06.721Z,99.99
2017-01-16T03:57:06.737Z,99.99
2017-01-16T03:58:06.748Z,99.99
2017-01-16T03:59:06.763Z,99.99
2017-01-16T04:00:06.776Z,99.99
2017-01-16T04:01:21.707Z,99.99
2017-01-16T04:02:06.803Z,99.99
2017-01-16T04:03:06.818Z,99.99
2017-01-16T04:04:06.831Z,99.99
2017-01-16T04:05:06.844Z,99.99
2017-01-16T04:06:06.859Z,99.99
2017-01-16T04:07:06.872Z,99.99
2017-01-16T04:08:06.884Z,99.99
2017-01-16T04:09:06.899Z,99.99
2017-01-16T04:10:06.912Z,99.99
2017-01-16T04:13:06.953Z,99.99
2017-01-16T04:14:06.966Z,99.99
2017-01-16T04:15:06.979Z,99.99
2017-01-16T04:16:06.993Z,99.99
2017-01-16T04:17:07.015Z,99.99
2017-01-16T04:18:07.020Z,99.99
2017-01-16T04:19:07.034Z,99.99
2017-01-16T04:20:07.434Z,99.99
2017-01-16T04:21:07.060Z,99.99
2017-01-16T04:22:07.073Z,99.99
2017-01-16T04:23:07.086Z,99.99
2017-01-16T04:24:07.101Z,99.99
2017-01-16T04:25:07.111Z,99.99
2017-01-16T04:26:07.127Z,99.99
2017-01-16T04:27:07.138Z,99.99
2017-01-16T04:28:07.155Z,99.99
2017-01-16T04:29:07.166Z,99.99
2017-01-16T04:30:07.184Z,99.99
2017-01-16T04:31:07.195Z,99.99
2017-01-16T04:32:07.205Z,99.99
2017-01-16T04:33:22.136Z,99.99
2017-01-16T04:34:07.230Z,99.99
2017-01-16T04:35:07.248Z,99.99
2017-01-16T04:36:07.260Z,99.99
2017-01-16T04:37:07.271Z,99.99
2017-01-16T04:38:07.286Z,99.99
2017-01-16T04:39:07.299Z,99.99
2017-01-16T04:40:07.314Z,99.99
2017-01-16T04:41:07.325Z,99.99
2017-01-16T04:42:07.340Z,99.99
2017-01-16T04:43:07.350Z,99.99
2017-01-16T04:44:07.365Z,99.99
2017-01-16T04:45:07.383Z,99.99
2017-01-16T04:46:07.391Z,99.99
2017-01-16T04:47:07.403Z,99.99
2017-01-16T04:48:07.417Z,99.99
2017-01-16T04:49:22.347Z,99.99
2017-01-16T04:50:07.443Z,99.99
2017-01-16T04:51:07.456Z,99.99
2017-01-16T04:52:07.475Z,99.99
2017-01-16T04:53:07.483Z,99.99
2017-01-16T04:54:07.495Z,99.99
2017-01-16T04:55:07.510Z,99.99
2017-01-16T04:56:07.521Z,99.99
2017-01-16T04:57:07.547Z,99.99
2017-01-16T04:58:07.549Z,99.99
2017-01-16T05:00:07.573Z,99.99
2017-01-16T05:01:07.588Z,99.99
2017-01-16T05:02:07.611Z,99.99
2017-01-16T05:03:07.613Z,99.99
2017-01-16T05:04:07.629Z,99.99
2017-01-16T05:05:22.556Z,99.99
2017-01-16T05:06:07.653Z,99.99
2017-01-16T05:07:07.666Z,99.99
2017-01-16T05:08:07.680Z,99.99
2017-01-16T05:09:07.692Z,99.99
2017-01-16T05:10:07.705Z,99.99
2017-01-16T05:11:07.718Z,99.99
2017-01-16T05:12:07.731Z,99.99
2017-01-16T05:13:07.745Z,99.99
2017-01-16T05:16:07.784Z,99.99
2017-01-16T05:17:07.795Z,99.99
2017-01-16T05:18:08.196Z,99.99
2017-01-16T05:19:07.823Z,99.99
2017-01-16T05:20:07.833Z,99.99
2017-01-16T05:21:22.765Z,99.99
2017-01-16T05:22:08.062Z,99.99
2017-01-16T05:23:07.876Z,99.99
2017-01-16T05:24:07.886Z,99.99
2017-01-16T05:25:07.901Z,99.99
2017-01-16T05:26:07.914Z,99.99
2017-01-16T05:27:07.926Z,99.99
2017-01-16T05:28:07.936Z,99.99
2017-01-16T05:29:07.950Z,99.99
2017-01-16T05:31:07.975Z,99.99
2017-01-16T05:32:07.991Z,99.99
2017-01-16T05:33:08.002Z,99.99
2017-01-16T05:34:08.017Z,99.99
2017-01-16T05:35:08.028Z,99.99
2017-01-16T05:36:22.959Z,99.99
2017-01-16T05:37:08.055Z,99.99
2017-01-16T05:38:08.066Z,99.99
2017-01-16T05:39:08.081Z,99.99
2017-01-16T05:40:08.097Z,99.99
2017-01-16T05:41:08.106Z,99.99
2017-01-16T05:42:08.118Z,99.99
2017-01-16T05:43:08.432Z,99.99
2017-01-16T05:44:08.146Z,99.99
2017-01-16T05:45:08.156Z,99.99
2017-01-16T05:46:08.169Z,99.99
2017-01-16T05:48:08.228Z,99.99
2017-01-16T05:49:08.206Z,99.99
2017-01-16T05:50:08.223Z,99.99
2017-01-16T05:51:08.236Z,99.99
2017-01-16T05:52:08.249Z,99.99
2017-01-16T05:53:08.258Z,99.99
2017-01-16T05:54:08.271Z,99.99
2017-01-16T05:55:08.284Z,99.99
2017-01-16T05:56:08.296Z,99.99
2017-01-16T05:57:08.309Z,99.99
2017-01-16T05:58:08.323Z,99.99
2017-01-16T05:59:08.334Z,99.99
2017-01-16T06:00:08.346Z,99.99
2017-01-16T06:01:08.361Z,99.99
2017-01-16T06:02:08.375Z,99.99
2017-01-16T06:03:08.387Z,99.99
2017-01-16T06:04:08.400Z,99.99
2017-01-16T06:05:08.411Z,99.99
2017-01-16T06:06:08.423Z,99.99
2017-01-16T06:07:08.434Z,99.99
2017-01-16T06:08:23.366Z,99.99
2017-01-16T06:09:08.463Z,99.99
2017-01-16T06:10:08.476Z,99.99
2017-01-16T06:11:08.487Z,99.99
2017-01-16T06:12:08.499Z,99.99
2017-01-16T06:13:08.513Z,99.99
2017-01-16T06:14:08.526Z,99.99
2017-01-16T06:15:08.536Z,99.99
2017-01-16T06:16:08.551Z,99.99
2017-01-16T06:17:08.563Z,99.99
2017-01-16T06:18:08.575Z,99.99
2017-01-16T06:20:08.604Z,99.99
2017-01-16T06:21:08.613Z,99.99
2017-01-16T06:22:08.625Z,99.99
2017-01-16T06:23:08.642Z,99.99
2017-01-16T06:24:23.568Z,99.99
2017-01-16T06:25:08.670Z,99.99
2017-01-16T06:26:08.678Z,99.99
2017-01-16T06:27:08.690Z,99.99
2017-01-16T06:28:08.704Z,99.99
2017-01-16T06:29:08.714Z,99.99
2017-01-16T06:30:08.731Z,99.99
2017-01-16T06:31:08.742Z,99.99
2017-01-16T06:32:08.752Z,99.99
2017-01-16T06:33:08.768Z,99.99
2017-01-16T06:34:08.777Z,99.99
2017-01-16T06:35:08.792Z,99.99
2017-01-16T06:36:08.802Z,99.99
2017-01-16T06:38:08.828Z,99.99
2017-01-16T06:39:08.841Z,99.99
2017-01-16T06:40:23.769Z,99.99
2017-01-16T06:41:08.865Z,99.99
2017-01-16T06:42:08.878Z,99.99
2017-01-16T06:43:08.891Z,99.99
2017-01-16T06:44:08.903Z,99.99
2017-01-16T06:45:08.918Z,99.99
2017-01-16T06:46:08.932Z,99.99
2017-01-16T06:47:08.941Z,99.99
2017-01-16T06:48:08.953Z,99.99
2017-01-16T06:49:08.969Z,99.99
2017-01-16T06:50:08.980Z,99.99
2017-01-16T06:51:08.990Z,99.99
2017-01-16T06:52:09.005Z,99.99
2017-01-16T06:53:09.015Z,99.99
2017-01-16T06:54:09.033Z,99.99
2017-01-16T06:55:09.039Z,99.99
2017-01-16T06:56:23.970Z,99.99
2017-01-16T06:57:09.067Z,99.99
2017-01-16T06:58:09.078Z,99.99
2017-01-16T06:59:09.090Z,99.99
2017-01-16T07:00:09.102Z,99.99
2017-01-16T07:01:09.119Z,99.99
2017-01-16T07:02:09.127Z,99.99
2017-01-16T07:03:09.140Z,99.99
2017-01-16T07:04:09.152Z,99.99
2017-01-16T07:05:09.170Z,99.99
2017-01-16T07:06:09.178Z,99.99
2017-01-16T07:09:09.215Z,99.99
2017-01-16T07:10:09.229Z,99.99
2017-01-16T07:11:24.157Z,99.99
2017-01-16T07:12:09.255Z,99.99
2017-01-16T07:13:09.264Z,99.99
2017-01-16T07:14:09.276Z,99.99
2017-01-16T07:15:09.291Z,99.99
2017-01-16T07:16:09.302Z,99.99
2017-01-16T07:17:09.315Z,99.99
2017-01-16T07:18:09.326Z,99.99
2017-01-16T07:19:09.339Z,99.99
2017-01-16T07:20:09.739Z,99.99
2017-01-16T07:24:09.400Z,99.99
2017-01-16T07:25:09.418Z,99.99
2017-01-16T07:26:09.426Z,99.99
2017-01-16T07:27:09.438Z,99.99
2017-01-16T07:28:09.449Z,99.99
2017-01-16T07:29:09.464Z,99.99
2017-01-16T07:30:09.476Z,99.99
2017-01-16T07:31:09.488Z,99.99
2017-01-16T07:32:09.892Z,99.99
2017-01-16T07:33:09.511Z,99.99
2017-01-16T07:34:09.537Z,99.99
2017-01-16T07:35:09.536Z,99.99
2017-01-16T07:36:09.553Z,99.99
2017-01-16T07:37:09.562Z,99.99
2017-01-16T07:38:09.962Z,99.99
2017-01-16T07:39:09.587Z,99.99
2017-01-16T07:40:09.605Z,99.99
2017-01-16T07:41:09.612Z,99.99
2017-01-16T07:42:09.630Z,99.99
2017-01-16T07:43:24.552Z,99.99
2017-01-16T07:44:09.653Z,99.99
2017-01-16T07:45:09.660Z,99.99
2017-01-16T07:46:09.672Z,99.99
2017-01-16T07:47:09.684Z,99.99
2017-01-16T07:48:09.705Z,99.99
2017-01-16T07:49:09.711Z,99.99
2017-01-16T07:50:09.729Z,99.99
2017-01-16T07:51:09.735Z,99.99
2017-01-16T07:52:09.748Z,99.99
2017-01-16T07:53:09.760Z,99.99
2017-01-16T07:54:09.779Z,99.99
2017-01-16T07:55:09.788Z,99.99
2017-01-16T07:56:09.801Z,99.99
2017-01-16T07:57:09.811Z,99.99
2017-01-16T07:59:24.753Z,99.99
2017-01-16T08:00:09.849Z,99.99
2017-01-16T08:01:09.860Z,99.99
2017-01-16T08:02:09.873Z,99.99
2017-01-16T08:03:09.886Z,99.99
2017-01-16T08:04:09.911Z,99.99
2017-01-16T08:05:09.910Z,99.99
2017-01-16T08:06:10.322Z,99.99
2017-01-16T08:07:09.937Z,99.99
2017-01-16T08:08:09.949Z,99.99
2017-01-16T08:09:09.967Z,99.99
2017-01-16T08:10:09.977Z,99.99
2017-01-16T08:11:09.988Z,99.99
2017-01-16T08:12:10.001Z,99.99
2017-01-16T08:13:10.011Z,99.99
2017-01-16T08:14:10.025Z,99.99
2017-01-16T08:15:24.952Z,99.99
2017-01-16T08:16:10.047Z,99.99
2017-01-16T08:17:10.061Z,99.99
2017-01-16T08:18:10.074Z,99.99
2017-01-16T08:19:10.084Z,99.99
2017-01-16T08:20:10.101Z,99.99
2017-01-16T08:21:10.110Z,99.99
2017-01-16T08:22:10.125Z,99.99
2017-01-16T08:23:10.133Z,99.99
2017-01-16T08:24:10.153Z,99.99
2017-01-16T08:26:10.177Z,99.99
2017-01-16T08:27:10.185Z,99.99
2017-01-16T08:28:10.211Z,99.99
2017-01-16T08:29:10.216Z,99.99
2017-01-16T08:30:10.238Z,99.99
2017-01-16T08:31:25.155Z,99.99
2017-01-16T08:32:10.262Z,99.99
2017-01-16T08:33:10.263Z,99.99
2017-01-16T08:34:10.278Z,99.99
2017-01-16T08:35:10.287Z,99.99
2017-01-16T08:36:10.304Z,99.99
2017-01-16T08:37:10.314Z,99.99
2017-01-16T08:38:10.334Z,99.99
2017-01-16T08:39:10.338Z,99.99
2017-01-16T08:40:10.350Z,99.99
2017-01-16T08:41:10.365Z,99.99
2017-01-16T08:42:10.384Z,99.99
2017-01-16T08:44:10.410Z,99.99
2017-01-16T08:45:10.415Z,99.99
2017-01-16T08:46:25.346Z,99.99
2017-01-16T08:47:10.442Z,99.99
2017-01-16T08:48:10.454Z,99.99
2017-01-16T08:49:10.467Z,99.99
2017-01-16T08:50:10.481Z,99.99
2017-01-16T08:51:10.494Z,99.99
2017-01-16T08:52:10.506Z,99.99
2017-01-16T08:53:10.519Z,99.99
2017-01-16T08:54:10.534Z,99.99
2017-01-16T08:55:10.576Z,99.99
2017-01-16T08:56:10.557Z,99.99
2017-01-16T08:58:10.585Z,99.99
2017-01-16T08:59:10.598Z,99.99
2017-01-16T09:00:10.611Z,99.99
2017-01-16T09:01:10.624Z,99.99
2017-01-16T09:02:10.636Z,99.99
2017-01-16T09:03:10.653Z,99.99
2017-01-16T09:04:10.668Z,99.99
2017-01-16T09:05:10.678Z,99.99
2017-01-16T09:06:10.694Z,99.99
2017-01-16T09:07:10.704Z,99.99
2017-01-16T09:08:10.719Z,99.99
2017-01-16T09:09:10.730Z,99.99
2017-01-16T09:10:10.745Z,99.99
2017-01-16T09:11:10.757Z,99.99
2017-01-16T09:12:10.799Z,99.99
2017-01-16T09:15:10.812Z,99.99
2017-01-16T09:16:10.825Z,99.99
2017-01-16T09:17:10.838Z,99.99
2017-01-16T09:18:25.768Z,99.99
2017-01-16T09:19:10.865Z,99.99
2017-01-16T09:20:10.882Z,99.99
2017-01-16T09:21:10.890Z,99.99
2017-01-16T09:22:10.904Z,99.99
2017-01-16T09:23:10.917Z,99.99
2017-01-16T09:24:10.932Z,99.99
2017-01-16T09:25:10.945Z,99.99
2017-01-16T09:26:10.967Z,99.99
2017-01-16T09:28:10.984Z,99.99
2017-01-16T09:29:10.997Z,99.99
2017-01-16T09:30:11.013Z,99.99
2017-01-16T09:31:11.026Z,99.99
2017-01-16T09:32:11.041Z,99.99
2017-01-16T09:33:11.058Z,99.99
2017-01-16T09:34:25.984Z,99.99
2017-01-16T09:35:11.079Z,99.99
2017-01-16T09:36:11.099Z,99.99
2017-01-16T09:37:11.107Z,99.99
2017-01-16T09:38:11.121Z,99.99
2017-01-16T09:39:11.134Z,99.99
2017-01-16T09:40:11.151Z,99.99
2017-01-16T09:41:11.164Z,99.99
2017-01-16T09:42:11.187Z,99.99
2017-01-16T09:44:11.203Z,99.99
2017-01-16T09:45:11.218Z,99.99
2017-01-16T09:46:11.231Z,99.99
2017-01-16T09:47:11.247Z,99.99
2017-01-16T09:48:11.258Z,99.99
2017-01-16T09:49:11.277Z,99.99
2017-01-16T09:50:26.203Z,99.99
2017-01-16T09:51:11.300Z,99.99
2017-01-16T09:52:11.323Z,99.99
2017-01-16T09:53:11.329Z,99.99
2017-01-16T09:54:11.355Z,99.99
2017-01-16T09:55:11.357Z,99.99
2017-01-16T09:56:11.379Z,99.99
2017-01-16T09:57:11.385Z,99.99
2017-01-16T09:58:11.399Z,99.99
2017-01-16T09:59:11.413Z,99.99
2017-01-16T10:00:11.425Z,99.99
2017-01-16T10:02:11.454Z,99.99
2017-01-16T10:03:11.469Z,99.99
2017-01-16T10:04:11.482Z,99.99
2017-01-16T10:05:11.496Z,99.99
2017-01-16T10:06:26.426Z,99.99
2017-01-16T10:07:11.524Z,99.99
2017-01-16T10:08:11.537Z,99.99
2017-01-16T10:09:11.551Z,99.99
2017-01-16T10:10:11.567Z,99.99
2017-01-16T10:11:11.579Z,99.99
2017-01-16T10:12:11.593Z,99.99
2017-01-16T10:13:11.609Z,99.99
2017-01-16T10:14:11.621Z,99.99
2017-01-16T10:16:11.648Z,99.99
2017-01-16T10:17:11.669Z,99.61
2017-01-16T10:19:11.693Z,98.66
2017-01-16T10:20:11.731Z,98.95
2017-01-16T10:21:26.639Z,98.71
2017-01-16T10:22:11.737Z,98.9
2017-01-16T10:23:11.749Z,98.52
2017-01-16T10:24:11.766Z,98.43
2017-01-16T10:25:11.778Z,98.33
2017-01-16T10:26:11.794Z,98.33
2017-01-16T10:27:11.808Z,98.33
2017-01-16T10:28:11.821Z,98.05
2017-01-16T10:29:11.835Z,98.24
2017-01-16T10:30:11.850Z,97.49
2017-01-16T10:31:11.863Z,96.83
2017-01-16T10:34:11.909Z,96.16
2017-01-16T10:35:11.925Z,96.35
2017-01-16T10:36:11.938Z,96.45
2017-01-16T10:37:11.955Z,96.45
2017-01-16T10:38:11.967Z,96.07
2017-01-16T10:39:11.983Z,96.45
2017-01-16T10:40:11.998Z,95.97
2017-01-16T10:41:12.012Z,96.35
2017-01-16T10:42:12.028Z,96.64
2017-01-16T10:43:12.042Z,96.54
2017-01-16T10:44:12.056Z,97.01
2017-01-16T10:45:12.072Z,96.35
2017-01-16T10:46:12.090Z,96.54
2017-01-16T10:47:12.103Z,96.64
2017-01-16T10:49:12.132Z,97.01
2017-01-16T10:50:12.146Z,97.15
2017-01-16T10:51:12.163Z,97.63
2017-01-16T10:52:12.175Z,98.24
2017-01-16T10:53:27.108Z,97.86
2017-01-16T10:54:12.204Z,97.67
2017-01-16T10:55:12.221Z,97.67
2017-01-16T10:56:12.235Z,97.01
2017-01-16T10:57:12.249Z,97.67
2017-01-16T10:58:12.264Z,97.67
2017-01-16T10:59:12.304Z,97.67
2017-01-16T11:00:12.291Z,97.67
2017-01-16T11:01:12.307Z,97.53
2017-01-16T11:02:12.321Z,98.05
2017-01-16T11:03:12.364Z,98.33
2017-01-16T11:04:12.351Z,97.86
2017-01-16T11:05:12.363Z,98.05
2017-01-16T11:06:12.378Z,98.05
2017-01-16T11:07:12.393Z,97.96
2017-01-16T11:08:12.409Z,97.86
2017-01-16T11:09:27.339Z,97.58
2017-01-16T11:10:12.438Z,98.19
2017-01-16T11:11:12.455Z,98.05
2017-01-16T11:12:12.464Z,98.05
2017-01-16T11:13:12.480Z,97.11
2017-01-16T11:14:12.492Z,97.86
2017-01-16T11:15:12.507Z,97.77
2017-01-16T11:16:12.523Z,97.86
2017-01-16T11:17:12.536Z,97.67
2017-01-16T11:18:12.571Z,97.2
2017-01-16T11:19:12.564Z,97.49
2017-01-16T11:20:12.579Z,97.3
2017-01-16T11:21:12.594Z,97.2
2017-01-16T11:23:12.632Z,95.93
2017-01-16T11:24:12.642Z,95.83
2017-01-16T11:25:27.570Z,95.17
2017-01-16T11:26:12.670Z,94.93
2017-01-16T11:27:12.682Z,95.69
2017-01-16T11:28:12.697Z,95.03
2017-01-16T11:29:12.711Z,95.31
2017-01-16T11:30:12.728Z,95.88
2017-01-16T11:31:12.742Z,96.35
2017-01-16T11:32:12.794Z,95.31
2017-01-16T11:33:12.773Z,95.31
2017-01-16T11:34:12.786Z,95.59
2017-01-16T11:35:12.829Z,95.69
2017-01-16T11:36:12.815Z,95.88
2017-01-16T11:37:12.834Z,96.35
2017-01-16T11:38:12.844Z,95.97
2017-01-16T11:39:12.860Z,95.88
2017-01-16T11:40:12.874Z,95.69
2017-01-16T11:41:27.806Z,95.69
2017-01-16T11:42:12.903Z,95.69
2017-01-16T11:43:12.918Z,95.5
2017-01-16T11:44:12.933Z,95.5
2017-01-16T11:45:12.947Z,95.07
2017-01-16T11:46:12.962Z,95.36
2017-01-16T11:47:12.977Z,95.74
2017-01-16T11:48:12.991Z,95.17
2017-01-16T11:49:13.006Z,94.6
2017-01-16T11:50:13.023Z,94.13
2017-01-16T11:51:13.037Z,94.51
2017-01-16T11:54:13.081Z,94.89
2017-01-16T11:55:13.097Z,94.13
2017-01-16T11:56:28.029Z,94.51
2017-01-16T11:57:13.126Z,94.23
2017-01-16T11:58:13.140Z,94.89
2017-01-16T11:59:13.157Z,95.07
2017-01-16T12:00:13.172Z,94.89
2017-01-16T12:01:13.188Z,94.51
2017-01-16T12:02:13.199Z,93.85
2017-01-16T12:03:13.215Z,93.09
2017-01-16T12:05:13.246Z,93.56
2017-01-16T12:06:13.261Z,94.23
2017-01-16T12:08:13.290Z,94.51
2017-01-16T12:09:13.309Z,94.32
2017-01-16T12:10:13.319Z,94.04
2017-01-16T12:11:13.332Z,93.56
2017-01-16T12:12:13.349Z,93.89
2017-01-16T12:13:13.361Z,94.18
2017-01-16T12:14:13.377Z,94.56
2017-01-16T12:15:13.390Z,94.37
2017-01-16T12:16:13.408Z,94.18
2017-01-16T12:17:13.421Z,94.56
2017-01-16T12:18:13.435Z,94.74
2017-01-16T12:19:13.456Z,94.84
2017-01-16T12:20:13.463Z,94.27
2017-01-16T12:21:13.480Z,94.18
2017-01-16T12:22:13.492Z,93.7
2017-01-16T12:23:13.534Z,94.46
2017-01-16T12:24:13.523Z,94.74
2017-01-16T12:25:13.535Z,94.65
2017-01-16T12:26:13.550Z,94.56
2017-01-16T12:27:13.564Z,94.27
2017-01-16T12:28:28.499Z,94.74
2017-01-16T12:29:13.593Z,94.37
2017-01-16T12:30:13.608Z,94.56
2017-01-16T12:31:13.623Z,94.27
2017-01-16T12:32:13.637Z,94.46
2017-01-16T12:33:13.652Z,94.37
2017-01-16T12:34:13.666Z,94.74
2017-01-16T12:35:13.683Z,94.27
2017-01-16T12:36:13.694Z,94.89
2017-01-16T12:37:13.710Z,94.32
2017-01-16T12:38:13.723Z,94.13
2017-01-16T12:39:13.743Z,93.94
2017-01-16T12:41:13.775Z,93.09
2017-01-16T12:42:13.781Z,93.28
2017-01-16T12:43:13.798Z,93.13
2017-01-16T12:44:28.729Z,93.89
2017-01-16T12:45:14.216Z,93.85
2017-01-16T12:46:13.841Z,93.7
2017-01-16T12:47:13.858Z,93.85
2017-01-16T12:48:13.870Z,93.18
2017-01-16T12:49:13.887Z,93.56
2017-01-16T12:50:13.899Z,93.04
2017-01-16T12:51:13.916Z,93.04
2017-01-16T12:52:13.928Z,93.23
2017-01-16T12:53:13.943Z,93.8
2017-01-16T12:54:14.060Z,93.89
2017-01-16T12:55:13.972Z,93.51
2017-01-16T12:56:13.993Z,93.32
2017-01-16T12:57:14.001Z,92.99
2017-01-16T12:58:14.019Z,92.66
2017-01-16T12:59:14.032Z,92.66
2017-01-16T13:00:28.963Z,92.94
2017-01-16T13:01:14.062Z,93.51
2017-01-16T13:02:14.076Z,93.13
2017-01-16T13:03:14.092Z,93.8
2017-01-16T13:04:14.106Z,94.04
2017-01-16T13:05:14.120Z,93.94
2017-01-16T13:06:14.138Z,93.47
2017-01-16T13:07:14.151Z,93.28
2017-01-16T13:08:14.165Z,93.37
2017-01-16T13:10:14.195Z,92.52
2017-01-16T13:12:14.225Z,93.23
2017-01-16T13:13:14.244Z,93.37
2017-01-16T13:14:14.256Z,93.94
2017-01-16T13:15:14.270Z,93.47
2017-01-16T13:16:29.203Z,93.37
2017-01-16T13:17:14.302Z,92.99
2017-01-16T13:18:14.317Z,93.37
2017-01-16T13:19:14.330Z,93.37
2017-01-16T13:20:14.549Z,92.99
2017-01-16T13:21:14.363Z,92.8
2017-01-16T13:22:14.375Z,93.18
2017-01-16T13:23:14.388Z,93.28
2017-01-16T13:24:14.406Z,93.85
2017-01-16T13:25:14.424Z,93.18
2017-01-16T13:26:14.436Z,93.28
2017-01-16T13:27:14.448Z,93.56
2017-01-16T13:28:14.467Z,93.18
2017-01-16T13:29:14.482Z,93.7
2017-01-16T13:30:14.496Z,94.04
2017-01-16T13:31:29.429Z,93.89
2017-01-16T13:32:14.527Z,93.99
2017-01-16T13:33:14.541Z,94.27
2017-01-16T13:34:14.558Z,93.99
2017-01-16T13:35:14.571Z,94.37
2017-01-16T13:36:14.588Z,94.65
2017-01-16T13:37:14.602Z,94.79
2017-01-16T13:38:14.618Z,94.7
2017-01-16T13:39:14.630Z,94.13
2017-01-16T13:40:14.645Z,93.85
2017-01-16T13:41:14.665Z,93.37
2017-01-16T13:42:14.681Z,94.13